Time;durP1;ratioP1;P1;durP2;ratioP2;P2;SDS_P1;SDS_P2;PMS_P1;PMS_P2;Temp;Humidity;BMP_temperature;BMP_pressure;BME280_temperature;BME280_humidity;BME280_pressure;Samples;Min_cycle;Max_cycle;Signal;HPM_P1;HPM_P2
2023/06/13 00:00:00;;;;;;;2.30;0.40;;;;;;;13.58;100.00;99978.73;104397;1259;59726;-45
2023/06/13 00:02:31;;;;;;;1.40;0.50;;;;;;;13.58;100.00;99976.41;104344;1264;72942;-45
2023/06/13 00:05:00;;;;;;;1.10;0.40;;;;;;;13.55;100.00;99972.41;104701;1259;68023;-44
2023/06/13 00:07:32;;;;;;;0.90;0.50;;;;;;;13.53;100.00;99972.54;104395;1259;71409;-46
2023/06/13 00:10:00;;;;;;;2.70;0.50;;;;;;;13.52;100.00;99968.42;105230;1259;62412;-46
2023/06/13 00:12:27;;;;;;;1.30;0.40;;;;;;;13.51;100.00;99966.15;104453;1259;60188;-44
2023/06/13 00:14:55;;;;;;;2.20;0.50;;;;;;;13.50;100.00;99962.79;104630;1259;73906;-45
2023/06/13 00:17:25;;;;;;;1.30;0.40;;;;;;;13.50;100.00;99966.58;104428;1259;66359;-44
2023/06/13 00:19:54;;;;;;;1.00;0.40;;;;;;;13.48;100.00;99967.41;104594;1259;72733;-45
2023/06/13 00:22:22;;;;;;;1.60;0.50;;;;;;;13.47;100.00;99963.70;104558;1259;60605;-45
2023/06/13 00:24:49;;;;;;;0.70;0.40;;;;;;;13.46;100.00;99961.02;104379;1258;59623;-46
2023/06/13 00:27:17;;;;;;;3.00;0.50;;;;;;;13.43;100.00;99956.88;104463;1259;71819;-43
2023/06/13 00:29:44;;;;;;;3.10;0.40;;;;;;;13.40;100.00;99950.59;105590;1259;66952;-45
2023/06/13 00:32:11;;;;;;;0.60;0.30;;;;;;;13.39;100.00;99955.34;104550;1259;71203;-46
2023/06/13 00:34:39;;;;;;;1.20;0.30;;;;;;;13.40;100.00;99958.52;104312;1263;59610;-46
2023/06/13 00:37:09;;;;;;;2.30;0.40;;;;;;;13.42;100.00;99951.20;104580;1259;59796;-46
2023/06/13 00:39:36;;;;;;;2.90;0.40;;;;;;;13.44;100.00;99954.50;104386;1263;75149;-46
2023/06/13 00:42:06;;;;;;;5.20;0.50;;;;;;;13.44;100.00;99951.06;105021;1264;67915;-46
2023/06/13 00:44:33;;;;;;;2.10;0.40;;;;;;;13.45;100.00;99954.27;106019;1259;73920;-45
2023/06/13 00:47:02;;;;;;;3.50;0.50;;;;;;;13.45;100.00;99950.63;105071;1259;59629;-45
2023/06/13 00:49:29;;;;;;;2.50;0.40;;;;;;;13.44;100.00;99951.60;104969;1258;59622;-45
2023/06/13 00:52:04;;;;;;;1.10;0.40;;;;;;;13.43;100.00;99949.70;105131;1259;72968;-44
2023/06/13 00:54:32;;;;;;;4.50;0.40;;;;;;;13.43;100.00;99946.48;105171;1259;67885;-48
2023/06/13 00:57:00;;;;;;;0.80;0.50;;;;;;;13.42;100.00;99946.51;105360;1259;72091;-45
2023/06/13 00:59:27;;;;;;;2.90;0.30;;;;;;;13.41;100.00;99943.15;104836;1264;60216;-43
2023/06/13 01:01:55;;;;;;;2.80;0.40;;;;;;;13.41;100.00;99942.42;104940;1267;59607;-46
2023/06/13 01:04:22;;;;;;;2.00;0.40;;;;;;;13.40;100.00;99942.83;104875;1259;71811;-44
2023/06/13 01:06:50;;;;;;;0.60;0.50;;;;;;;13.39;100.00;99943.23;104908;1264;67592;-44
2023/06/13 01:09:17;;;;;;;0.50;0.40;;;;;;;13.38;100.00;99942.60;105026;1260;72689;-44
2023/06/13 01:12:20;;;;;;;0.60;0.40;;;;;;;13.37;100.00;99940.48;104936;1261;59778;-44
2023/06/13 01:15:13;;;;;;;0.80;0.40;;;;;;;13.37;100.00;99945.37;104992;1260;60163;-44
2023/06/13 01:17:49;;;;;;;1.90;0.60;;;;;;;13.35;100.00;99943.64;104923;1259;73168;-46
2023/06/13 01:20:18;;;;;;;1.60;0.50;;;;;;;13.34;100.00;99943.55;104269;1264;66656;-45
2023/06/13 01:22:53;;;;;;;1.90;0.40;;;;;;;13.32;100.00;99934.65;105463;1262;71432;-46
2023/06/13 01:25:37;;;;;;;2.80;0.40;;;;;;;13.32;100.00;99930.11;104946;1261;60385;-45
2023/06/13 01:28:06;;;;;;;2.00;0.40;;;;;;;13.32;100.00;99931.59;105272;1260;60724;-46
2023/06/13 01:30:34;;;;;;;1.00;0.40;;;;;;;13.31;100.00;99931.83;105455;1261;72949;-45
2023/06/13 01:33:02;;;;;;;3.10;0.50;;;;;;;13.30;100.00;99927.20;105013;1259;66942;-46
2023/06/13 01:35:30;;;;;;;0.60;0.30;;;;;;;13.29;100.00;99931.20;105729;1258;72445;-46
2023/06/13 01:37:57;;;;;;;2.00;0.40;;;;;;;13.28;100.00;99933.23;105012;1264;60405;-45
2023/06/13 01:40:25;;;;;;;1.40;0.60;;;;;;;13.28;100.00;99935.05;108518;1259;58856;-46
2023/06/13 01:42:52;;;;;;;2.10;0.50;;;;;;;13.27;100.00;99931.13;105002;1258;73357;-45
2023/06/13 01:45:20;;;;;;;2.60;0.40;;;;;;;13.28;100.00;99931.27;105102;1257;68035;-45
2023/06/13 01:48:00;;;;;;;2.00;0.30;;;;;;;13.29;100.00;99934.44;104795;1264;71501;-45
2023/06/13 01:50:30;;;;;;;0.50;0.30;;;;;;;13.32;100.00;99929.43;105817;1259;59713;-46
2023/06/13 01:53:14;;;;;;;0.90;0.30;;;;;;;13.34;100.00;99932.36;105282;1262;59608;-45
2023/06/13 01:55:56;;;;;;;2.20;0.40;;;;;;;13.37;100.00;99930.92;104956;1259;72807;-45
2023/06/13 01:58:34;;;;;;;0.50;0.30;;;;;;;13.40;100.00;99929.33;105284;1259;66340;-46
2023/06/13 02:01:04;;;;;;;2.60;0.40;;;;;;;13.40;100.00;99926.41;105608;1260;71648;-44
2023/06/13 02:03:32;;;;;;;7.70;0.60;;;;;;;13.41;100.00;99927.82;105120;1262;60499;-45
2023/06/13 02:06:00;;;;;;;3.40;0.50;;;;;;;13.40;100.00;99927.16;105170;1258;60782;-45
2023/06/13 02:08:28;;;;;;;1.50;0.40;;;;;;;13.38;100.00;99929.22;105154;1259;73081;-43
2023/06/13 02:10:55;;;;;;;1.50;0.50;;;;;;;13.37;100.00;99933.47;105012;1259;68851;-45
2023/06/13 02:13:23;;;;;;;0.80;0.40;;;;;;;13.34;100.00;99937.44;105118;1263;72436;-44
2023/06/13 02:15:50;;;;;;;1.70;0.40;;;;;;;13.31;100.00;99936.70;108731;1259;58873;-46
2023/06/13 02:18:18;;;;;;;1.90;0.40;;;;;;;13.29;100.00;99935.14;108692;1259;60118;-45
2023/06/13 02:20:45;;;;;;;6.80;0.40;;;;;;;13.28;100.00;99935.04;108739;1259;73058;-46
2023/06/13 02:23:12;;;;;;;2.00;0.40;;;;;;;13.25;100.00;99935.20;108674;1261;68067;-46
2023/06/13 02:25:40;;;;;;;1.30;0.40;;;;;;;13.26;100.00;99938.97;108739;1259;71422;-46
2023/06/13 02:28:07;;;;;;;3.30;0.40;;;;;;;13.27;100.00;99942.00;108726;1257;57835;-46
2023/06/13 02:30:35;;;;;;;0.40;0.40;;;;;;;13.25;100.00;99939.17;106778;1257;60257;-46
2023/06/13 02:33:02;;;;;;;2.70;0.40;;;;;;;13.25;100.00;99939.02;105061;1265;72230;-45
2023/06/13 02:35:29;;;;;;;2.50;0.40;;;;;;;13.24;100.00;99943.92;105173;1258;67629;-45
2023/06/13 02:37:56;;;;;;;3.00;0.40;;;;;;;13.22;100.00;99942.23;105082;1259;72437;-44
2023/06/13 02:40:24;;;;;;;0.30;0.30;;;;;;;13.21;100.00;99942.66;105066;1263;62098;-44
2023/06/13 02:42:52;;;;;;;1.30;0.30;;;;;;;13.21;100.00;99942.83;105083;1258;59864;-46
2023/06/13 02:45:20;;;;;;;2.50;0.40;;;;;;;13.22;100.00;99939.33;105100;1261;72697;-44
2023/06/13 02:47:47;;;;;;;1.50;0.30;;;;;;;13.24;100.00;99941.74;105096;1259;67613;-42
2023/06/13 02:50:14;;;;;;;2.00;0.40;;;;;;;13.26;100.00;99939.11;105047;1263;71415;-44
2023/06/13 02:52:42;;;;;;;3.00;0.40;;;;;;;13.29;100.00;99938.63;107328;1263;60119;-46
2023/06/13 02:55:10;;;;;;;3.90;0.30;;;;;;;13.29;100.00;99934.29;106015;1259;60022;-45
2023/06/13 02:57:38;;;;;;;1.70;0.30;;;;;;;13.28;100.00;99931.98;106897;1262;72177;-45
2023/06/13 03:00:08;;;;;;;1.00;0.40;;;;;;;13.27;100.00;99928.95;105149;1257;68145;-45
2023/06/13 03:02:37;;;;;;;0.50;0.40;;;;;;;13.28;100.00;99926.03;105868;1262;73410;-43
2023/06/13 03:05:10;;;;;;;1.00;0.40;;;;;;;13.28;100.00;99924.77;105585;1261;60625;-45
2023/06/13 03:07:42;;;;;;;0.50;0.30;;;;;;;13.27;100.00;99924.85;106914;1263;58762;-44
2023/06/13 03:10:12;;;;;;;0.90;0.40;;;;;;;13.26;100.00;99932.30;105878;1262;73902;-45
2023/06/13 03:12:40;;;;;;;3.20;0.30;;;;;;;13.23;100.00;99933.30;106096;1263;67030;-45
2023/06/13 03:15:08;;;;;;;0.80;0.40;;;;;;;13.22;100.00;99938.23;104970;1264;71509;-46
2023/06/13 03:17:36;;;;;;;0.70;0.50;;;;;;;13.19;100.00;99936.41;105089;1260;60576;-45
2023/06/13 03:20:05;;;;;;;3.70;0.40;;;;;;;13.18;100.00;99933.45;106508;1263;58791;-44
2023/06/13 03:22:33;;;;;;;2.90;0.40;;;;;;;13.18;100.00;99936.73;105572;1263;74619;-46
2023/06/13 03:25:06;;;;;;;2.20;0.30;;;;;;;13.16;100.00;99935.89;105041;1263;67527;-46
2023/06/13 03:27:39;;;;;;;5.40;0.40;;;;;;;13.15;100.00;99935.60;104932;1264;71109;-47
2023/06/13 03:30:07;;;;;;;4.30;0.50;;;;;;;13.13;100.00;99934.77;105030;1263;60342;-44
2023/06/13 03:32:36;;;;;;;1.80;0.40;;;;;;;13.12;100.00;99937.33;104825;1260;60530;-45
2023/06/13 03:35:04;;;;;;;0.70;0.40;;;;;;;13.13;100.00;99945.06;104943;1265;73920;-43
2023/06/13 03:37:31;;;;;;;0.40;0.30;;;;;;;13.15;100.00;99945.32;104776;1259;67628;-43
2023/06/13 03:39:59;;;;;;;1.00;0.30;;;;;;;13.19;100.00;99946.35;104935;1264;72727;-45
2023/06/13 03:42:27;;;;;;;1.90;0.30;;;;;;;13.23;100.00;99946.84;105039;1260;62011;-45
2023/06/13 03:44:55;;;;;;;8.10;0.40;;;;;;;13.28;100.00;99949.30;105018;1265;61585;-43
2023/06/13 03:47:22;;;;;;;2.10;0.40;;;;;;;13.32;100.00;99943.48;105036;1257;72732;-45
2023/06/13 03:49:49;;;;;;;1.10;0.40;;;;;;;13.36;100.00;99939.48;105031;1263;68129;-46
2023/06/13 03:52:17;;;;;;;2.60;0.40;;;;;;;13.38;100.00;99940.43;105137;1263;72320;-44
2023/06/13 03:54:44;;;;;;;0.70;0.40;;;;;;;13.38;100.00;99941.34;105241;1262;60555;-44
2023/06/13 03:57:12;;;;;;;0.60;0.50;;;;;;;13.35;100.00;99939.14;105365;1260;61331;-44
2023/06/13 03:59:39;;;;;;;0.50;0.30;;;;;;;13.35;100.00;99939.86;105066;1261;72636;-45
2023/06/13 04:02:08;;;;;;;2.40;0.30;;;;;;;13.37;100.00;99945.36;105620;1262;68243;-45
2023/06/13 04:04:36;;;;;;;1.70;0.30;;;;;;;13.38;100.00;99944.90;105310;1257;72658;-47
2023/06/13 04:07:05;;;;;;;0.90;0.60;;;;;;;13.39;100.00;99945.20;105102;1262;60365;-46
2023/06/13 04:09:33;;;;;;;3.50;0.40;;;;;;;13.40;100.00;99949.86;106996;1258;62365;-46
2023/06/13 04:12:01;;;;;;;0.90;0.40;;;;;;;13.40;100.00;99948.74;105298;1260;73336;-45
2023/06/13 04:14:28;;;;;;;1.20;0.40;;;;;;;13.42;100.00;99953.00;106551;1256;69567;-45
2023/06/13 04:16:57;;;;;;;0.60;0.40;;;;;;;13.42;100.00;99951.38;105249;1262;72355;-45
2023/06/13 04:19:25;;;;;;;1.50;0.40;;;;;;;13.40;100.00;99950.79;105996;1261;60444;-46
2023/06/13 04:21:53;;;;;;;3.20;0.40;;;;;;;13.37;100.00;99949.48;105823;1262;60871;-42
2023/06/13 04:24:21;;;;;;;1.90;0.50;;;;;;;13.36;100.00;99953.35;105127;1262;73883;-46
2023/06/13 04:26:50;;;;;;;1.80;0.30;;;;;;;13.36;100.00;99957.84;105118;1260;68011;-45
2023/06/13 04:29:19;;;;;;;1.20;0.40;;;;;;;13.38;100.00;99954.86;105787;1260;71460;-45
2023/06/13 04:31:47;;;;;;;1.00;0.50;;;;;;;13.42;100.00;99951.58;105364;1257;62483;-45
2023/06/13 04:34:14;;;;;;;0.50;0.40;;;;;;;13.45;100.00;99948.10;105241;1262;60414;-45
2023/06/13 04:36:44;;;;;;;1.30;0.40;;;;;;;13.49;100.00;99948.99;105545;1261;73888;-46
2023/06/13 04:39:12;;;;;;;2.00;0.40;;;;;;;13.53;100.00;99946.76;105419;1262;67514;-44
2023/06/13 04:41:43;;;;;;;3.60;0.50;;;;;;;13.56;100.00;99944.94;105092;1262;72431;-45
2023/06/13 04:44:13;;;;;;;2.60;0.80;;;;;;;13.60;100.00;99944.52;105646;1261;60342;-45
2023/06/13 04:46:43;;;;;;;1.50;0.50;;;;;;;13.64;100.00;99950.42;105716;1261;61158;-45
2023/06/13 04:49:11;;;;;;;8.00;0.60;;;;;;;13.64;100.00;99951.16;105328;1256;73811;-45
2023/06/13 04:51:40;;;;;;;2.60;0.40;;;;;;;13.63;100.00;99958.60;105136;1262;68374;-45
2023/06/13 04:54:09;;;;;;;1.70;0.40;;;;;;;13.63;100.00;99955.92;105525;1264;72729;-46
2023/06/13 04:56:37;;;;;;;4.50;0.50;;;;;;;13.64;100.00;99952.80;104966;1262;60446;-45
2023/06/13 04:59:08;;;;;;;2.90;0.40;;;;;;;13.67;100.00;99957.19;105645;1260;60563;-46
2023/06/13 05:01:37;;;;;;;1.00;0.50;;;;;;;13.70;100.00;99950.31;104984;1256;73478;-45
2023/06/13 05:04:05;;;;;;;1.10;0.50;;;;;;;13.71;100.00;99953.88;106148;1263;68174;-45
2023/06/13 05:06:37;;;;;;;1.60;0.50;;;;;;;13.71;100.00;99950.75;105152;1260;72526;-46
2023/06/13 05:09:06;;;;;;;3.00;0.40;;;;;;;13.75;100.00;99947.34;104871;1265;60880;-46
2023/06/13 05:11:34;;;;;;;1.80;0.50;;;;;;;13.79;100.00;99945.77;104930;1260;60331;-45
2023/06/13 05:14:01;;;;;;;1.20;0.50;;;;;;;13.85;100.00;99942.59;104731;1262;73902;-46
2023/06/13 05:16:29;;;;;;;1.00;0.40;;;;;;;13.90;100.00;99939.55;104955;1260;68039;-46
2023/06/13 05:18:57;;;;;;;1.50;0.40;;;;;;;13.96;100.00;99935.42;108636;1256;73005;-46
2023/06/13 05:21:25;;;;;;;1.10;0.40;;;;;;;14.03;100.00;99932.80;106253;1256;61001;-46
2023/06/13 05:23:53;;;;;;;3.70;0.50;;;;;;;14.12;100.00;99936.96;104892;1260;60513;-46
2023/06/13 05:26:21;;;;;;;2.10;0.50;;;;;;;14.19;100.00;99935.30;108670;1261;73854;-46
2023/06/13 05:28:48;;;;;;;1.50;0.50;;;;;;;14.26;100.00;99936.14;108760;1257;66674;-46
2023/06/13 05:31:15;;;;;;;0.60;0.50;;;;;;;14.33;100.00;99933.69;108755;1260;72249;-46
2023/06/13 05:33:43;;;;;;;0.80;0.60;;;;;;;14.39;100.00;99930.45;108734;1257;60264;-46
2023/06/13 05:36:11;;;;;;;1.50;0.70;;;;;;;14.45;100.00;99930.33;108849;1258;60632;-46
2023/06/13 05:38:39;;;;;;;0.70;0.60;;;;;;;14.46;100.00;99931.34;108682;1260;73856;-47
2023/06/13 05:41:07;;;;;;;2.00;0.60;;;;;;;14.47;100.00;99931.12;108772;1255;67459;-46
2023/06/13 05:43:34;;;;;;;1.40;0.60;;;;;;;14.51;100.00;99931.92;108800;1256;71717;-46
2023/06/13 05:46:01;;;;;;;5.50;1.00;;;;;;;14.58;100.00;99934.75;108784;1257;60231;-46
2023/06/13 05:48:29;;;;;;;2.20;0.90;;;;;;;14.65;100.00;99933.04;108860;1257;59258;-46
2023/06/13 05:50:57;;;;;;;5.80;1.10;;;;;;;14.69;100.00;99924.81;108866;1254;73214;-46
2023/06/13 05:53:26;;;;;;;0.80;0.70;;;;;;;14.74;100.00;99927.23;108875;1262;67910;-46
2023/06/13 05:55:53;;;;;;;4.80;0.60;;;;;;;14.76;100.00;99926.54;108204;1257;73142;-46
2023/06/13 05:58:20;;;;;;;9.10;0.80;;;;;;;14.80;100.00;99931.52;105218;1261;60274;-45
2023/06/13 06:00:48;;;;;;;2.20;0.80;;;;;;;14.84;100.00;99929.30;105169;1258;60461;-45
2023/06/13 06:03:15;;;;;;;1.50;0.70;;;;;;;14.89;100.00;99933.71;105341;1262;74228;-46
2023/06/13 06:05:43;;;;;;;2.40;0.80;;;;;;;14.93;100.00;99933.06;105653;1258;67615;-47
2023/06/13 06:08:12;;;;;;;2.30;0.70;;;;;;;14.99;100.00;99932.66;105402;1261;71470;-46
2023/06/13 06:10:39;;;;;;;5.70;0.70;;;;;;;15.05;100.00;99930.63;105513;1260;61205;-46
2023/06/13 06:13:06;;;;;;;1.00;0.80;;;;;;;15.09;100.00;99931.46;105264;1261;61199;-45
2023/06/13 06:15:37;;;;;;;1.60;0.80;;;;;;;15.09;100.00;99931.86;105156;1261;73904;-46
2023/06/13 06:18:04;;;;;;;4.20;0.80;;;;;;;15.07;100.00;99931.41;106107;1258;66298;-45
2023/06/13 06:20:32;;;;;;;0.90;0.70;;;;;;;15.07;100.00;99930.89;105232;1260;73648;-45
2023/06/13 06:22:59;;;;;;;2.40;0.70;;;;;;;15.08;100.00;99930.48;105115;1258;60505;-45
2023/06/13 06:25:26;;;;;;;2.50;0.80;;;;;;;15.10;100.00;99930.88;105098;1256;60615;-45
2023/06/13 06:27:55;;;;;;;4.60;0.70;;;;;;;15.14;100.00;99929.91;105147;1255;72896;-46
2023/06/13 06:30:22;;;;;;;1.20;0.80;;;;;;;15.15;100.00;99926.04;105293;1263;66264;-44
2023/06/13 06:32:50;;;;;;;2.30;0.60;;;;;;;15.17;100.00;99927.76;105219;1260;74098;-46
2023/06/13 06:35:17;;;;;;;1.10;0.70;;;;;;;15.19;100.00;99920.36;105133;1261;60429;-45
2023/06/13 06:37:44;;;;;;;1.40;0.70;;;;;;;15.26;100.00;99921.17;105203;1260;60541;-46
2023/06/13 06:40:12;;;;;;;2.20;0.80;;;;;;;15.32;100.00;99918.25;105299;1260;71813;-46
2023/06/13 06:42:40;;;;;;;4.60;0.70;;;;;;;15.34;100.00;99916.29;105846;1260;67991;-45
2023/06/13 06:45:12;;;;;;;3.70;0.70;;;;;;;15.40;100.00;99914.48;105407;1260;72405;-46
2023/06/13 06:47:41;;;;;;;0.90;0.70;;;;;;;15.49;100.00;99914.76;106132;1261;61987;-46
2023/06/13 06:50:13;;;;;;;3.50;0.80;;;;;;;15.60;100.00;99907.73;105554;1256;60537;-46
2023/06/13 06:52:41;;;;;;;8.00;1.00;;;;;;;15.67;100.00;99902.42;105960;1257;73873;-43
2023/06/13 06:55:08;;;;;;;0.80;0.70;;;;;;;15.71;100.00;99904.86;104989;1261;67746;-45
2023/06/13 06:57:35;;;;;;;1.10;0.70;;;;;;;15.71;100.00;99900.35;104543;1261;72630;-45
2023/06/13 07:00:10;;;;;;;0.90;0.80;;;;;;;15.72;100.00;99898.96;105114;1261;60507;-44
2023/06/13 07:02:37;;;;;;;1.30;0.90;;;;;;;15.82;100.00;99898.65;104760;1261;60579;-45
2023/06/13 07:05:05;;;;;;;2.30;1.20;;;;;;;15.97;100.00;99895.13;106123;1260;74258;-44
2023/06/13 07:07:32;;;;;;;1.90;0.80;;;;;;;16.10;100.00;99889.90;105221;1261;65326;-45
2023/06/13 07:10:00;;;;;;;0.90;0.80;;;;;;;16.15;100.00;99887.68;105005;1261;72712;-44
2023/06/13 07:12:27;;;;;;;4.20;0.90;;;;;;;16.25;100.00;99884.29;104801;1257;60494;-45
2023/06/13 07:14:55;;;;;;;2.30;0.90;;;;;;;16.34;100.00;99877.36;105396;1261;60998;-45
2023/06/13 07:17:23;;;;;;;3.40;1.00;;;;;;;16.40;100.00;99880.56;105010;1257;73758;-46
2023/06/13 07:19:50;;;;;;;4.70;0.90;;;;;;;16.50;100.00;99881.98;105170;1256;66483;-46
2023/06/13 07:22:17;;;;;;;2.50;1.00;;;;;;;16.58;100.00;99881.79;104933;1263;72786;-47
2023/06/13 07:24:45;;;;;;;1.10;1.00;;;;;;;16.63;100.00;99883.83;105247;1264;60522;-46
2023/06/13 07:27:12;;;;;;;1.10;0.80;;;;;;;16.67;100.00;99886.44;105283;1260;60435;-45
2023/06/13 07:29:40;;;;;;;4.20;1.00;;;;;;;16.69;100.00;99887.77;105077;1260;74281;-46
2023/06/13 07:32:08;;;;;;;1.20;1.00;;;;;;;16.65;100.00;99886.96;105126;1261;67976;-45
2023/06/13 07:34:35;;;;;;;2.30;0.90;;;;;;;16.65;100.00;99882.59;105655;1261;72701;-45
2023/06/13 07:37:05;;;;;;;1.80;0.90;;;;;;;16.70;100.00;99884.58;105680;1256;60741;-46
2023/06/13 07:39:33;;;;;;;1.50;1.40;;;;;;;16.77;100.00;99883.34;105249;1257;60696;-46
2023/06/13 07:42:00;;;;;;;2.00;1.20;;;;;;;16.85;100.00;99886.24;105272;1260;73250;-44
2023/06/13 07:44:27;;;;;;;3.30;1.10;;;;;;;16.85;100.00;99881.67;105373;1258;65744;-46
2023/06/13 07:46:55;;;;;;;1.10;0.90;;;;;;;16.83;100.00;99884.72;105310;1258;73556;-45
2023/06/13 07:49:22;;;;;;;2.40;1.40;;;;;;;16.83;100.00;99885.86;105272;1257;60489;-45
2023/06/13 07:51:50;;;;;;;2.90;0.90;;;;;;;16.79;100.00;99885.20;105366;1257;60515;-45
2023/06/13 07:54:17;;;;;;;2.60;1.10;;;;;;;16.77;100.00;99882.61;105295;1261;72577;-44
2023/06/13 07:56:44;;;;;;;4.50;1.50;;;;;;;16.78;100.00;99886.92;105380;1258;66528;-45
2023/06/13 07:59:12;;;;;;;6.30;1.00;;;;;;;16.76;100.00;99885.57;105265;1261;72450;-45
2023/06/13 08:01:39;;;;;;;1.30;1.10;;;;;;;16.75;100.00;99877.20;105047;1254;60493;-45
2023/06/13 08:04:07;;;;;;;1.30;1.20;;;;;;;16.73;100.00;99874.78;105496;1257;60525;-46
2023/06/13 08:06:39;;;;;;;1.50;1.20;;;;;;;16.71;100.00;99877.08;106755;1260;72650;-46
2023/06/13 08:09:11;;;;;;;1.80;1.20;;;;;;;16.71;100.00;99882.70;105242;1264;66503;-46
2023/06/13 08:11:39;;;;;;;2.00;1.10;;;;;;;16.67;100.00;99881.05;105181;1260;71450;-46
2023/06/13 08:14:12;;;;;;;2.30;1.20;;;;;;;16.61;100.00;99882.66;105195;1265;60539;-45
2023/06/13 08:16:42;;;;;;;2.30;1.30;;;;;;;16.60;100.00;99879.98;108792;1257;58778;-47
2023/06/13 08:19:10;;;;;;;3.50;1.40;;;;;;;16.63;100.00;99878.39;108869;1256;73874;-47
2023/06/13 08:21:37;;;;;;;4.10;1.10;;;;;;;16.66;100.00;99876.52;108833;1257;67723;-47
2023/06/13 08:24:04;;;;;;;4.10;1.00;;;;;;;16.73;100.00;99880.27;108841;1257;72477;-47
2023/06/13 08:26:32;;;;;;;1.30;1.20;;;;;;;16.76;100.00;99884.88;108814;1257;58815;-46
2023/06/13 08:29:02;;;;;;;1.80;1.20;;;;;;;16.75;100.00;99880.23;108343;1257;60023;-46
2023/06/13 08:31:31;;;;;;;1.30;1.10;;;;;;;16.75;100.00;99883.73;108783;1257;73840;-47
2023/06/13 08:34:03;;;;;;;4.80;1.30;;;;;;;16.75;100.00;99886.23;108757;1257;66341;-48
2023/06/13 08:36:38;;;;;;;4.60;1.20;;;;;;;16.77;100.00;99888.63;108894;1256;71389;-47
2023/06/13 08:39:07;;;;;;;3.90;1.60;;;;;;;16.77;100.00;99887.19;108861;1257;58852;-47
2023/06/13 08:41:36;;;;;;;6.40;1.70;;;;;;;16.82;100.00;99886.45;108812;1256;58605;-47
2023/06/13 08:44:03;;;;;;;2.50;1.30;;;;;;;16.89;100.00;99883.91;108798;1260;73759;-48
2023/06/13 08:46:30;;;;;;;2.60;1.60;;;;;;;16.96;100.00;99883.75;108750;1256;68332;-47
2023/06/13 08:48:58;;;;;;;2.50;1.10;;;;;;;16.97;100.00;99883.34;108716;1256;72693;-47
2023/06/13 08:51:27;;;;;;;6.40;1.30;;;;;;;16.99;100.00;99881.36;107548;1257;60007;-48
2023/06/13 08:53:57;;;;;;;15.10;3.80;;;;;;;17.03;100.00;99881.84;105811;1257;59623;-46
2023/06/13 08:56:25;;;;;;;1.20;1.10;;;;;;;17.07;100.00;99884.29;105441;1255;73853;-46
2023/06/13 08:59:14;;;;;;;2.70;1.20;;;;;;;17.13;100.00;99880.73;105171;1256;67929;-47
2023/06/13 09:01:43;;;;;;;3.50;1.70;;;;;;;17.21;100.00;99885.90;105179;1261;71576;-45
2023/06/13 09:04:11;;;;;;;2.60;0.90;;;;;;;17.27;100.00;99887.13;104941;1258;60522;-46
2023/06/13 09:06:39;;;;;;;0.90;0.80;;;;;;;17.33;100.00;99886.70;106537;1257;60424;-45
2023/06/13 09:09:06;;;;;;;2.90;1.20;;;;;;;17.42;100.00;99888.76;105117;1256;73758;-44
2023/06/13 09:11:34;;;;;;;2.50;1.10;;;;;;;17.51;100.00;99882.27;105215;1255;67660;-46
2023/06/13 09:14:03;;;;;;;2.10;1.10;;;;;;;17.59;100.00;99880.55;105593;1257;72406;-45
2023/06/13 09:16:31;;;;;;;1.40;1.10;;;;;;;17.61;100.00;99872.80;105125;1257;60557;-46
2023/06/13 09:18:59;;;;;;;3.20;1.20;;;;;;;17.60;100.00;99875.96;105814;1257;60528;-45
2023/06/13 09:21:27;;;;;;;1.40;0.90;;;;;;;17.60;100.00;99872.17;105767;1257;73825;-45
2023/06/13 09:23:57;;;;;;;3.40;1.50;;;;;;;17.64;100.00;99866.80;105320;1257;66535;-44
2023/06/13 09:26:26;;;;;;;1.10;1.00;;;;;;;17.68;100.00;99863.61;105175;1260;72652;-46
2023/06/13 09:28:53;;;;;;;1.40;1.20;;;;;;;17.69;100.00;99862.91;105113;1260;60536;-45
2023/06/13 09:31:20;;;;;;;4.80;1.80;;;;;;;17.69;100.00;99867.82;105400;1256;60425;-46
2023/06/13 09:33:48;;;;;;;1.40;0.90;;;;;;;17.73;100.00;99868.66;105226;1256;73839;-45
2023/06/13 09:36:16;;;;;;;1.90;1.30;;;;;;;17.77;100.00;99868.71;105257;1258;67784;-46
2023/06/13 09:38:44;;;;;;;5.50;2.50;;;;;;;17.85;100.00;99863.39;105478;1258;72647;-46
2023/06/13 09:41:12;;;;;;;7.00;3.60;;;;;;;17.92;100.00;99864.11;105312;1258;60533;-46
2023/06/13 09:43:40;;;;;;;1.70;1.30;;;;;;;17.98;100.00;99865.63;105436;1260;60538;-45
2023/06/13 09:46:10;;;;;;;3.20;1.10;;;;;;;17.95;100.00;99861.83;105311;1260;73786;-45
2023/06/13 09:48:38;;;;;;;5.80;2.70;;;;;;;17.86;100.00;99861.84;105485;1257;66947;-46
2023/06/13 09:51:11;;;;;;;1.50;1.20;;;;;;;17.80;100.00;99861.90;105160;1256;72586;-45
2023/06/13 09:53:39;;;;;;;2.80;1.10;;;;;;;17.81;100.00;99861.84;105203;1260;60607;-45
2023/06/13 09:56:08;;;;;;;1.30;1.00;;;;;;;17.86;100.00;99860.06;105519;1260;60520;-47
2023/06/13 09:58:36;;;;;;;2.00;1.20;;;;;;;17.84;100.00;99863.45;105500;1257;73810;-45
2023/06/13 10:01:03;;;;;;;3.20;1.30;;;;;;;17.75;100.00;99872.24;105355;1260;66919;-45
2023/06/13 10:03:31;;;;;;;1.50;1.40;;;;;;;17.71;100.00;99874.04;105651;1260;71745;-45
2023/06/13 10:05:59;;;;;;;3.00;1.50;;;;;;;17.71;100.00;99872.75;105354;1257;60433;-46
2023/06/13 10:08:27;;;;;;;1.60;0.80;;;;;;;17.70;100.00;99873.52;105502;1260;60458;-45
2023/06/13 10:10:54;;;;;;;1.40;0.90;;;;;;;17.71;100.00;99870.96;105356;1258;73842;-45
2023/06/13 10:13:24;;;;;;;1.50;0.90;;;;;;;17.72;100.00;99865.29;105335;1256;67991;-44
2023/06/13 10:15:57;;;;;;;1.50;0.90;;;;;;;17.74;100.00;99866.23;105660;1260;72748;-44
2023/06/13 10:18:37;;;;;;;5.70;0.80;;;;;;;17.78;100.00;99859.34;105166;1257;60618;-45
2023/06/13 10:21:06;;;;;;;2.90;1.00;;;;;;;17.83;100.00;99855.90;105320;1258;61683;-45
2023/06/13 10:23:35;;;;;;;3.40;1.20;;;;;;;17.85;100.00;99855.77;105641;1260;74346;-45
2023/06/13 10:26:06;;;;;;;1.80;1.70;;;;;;;17.88;100.00;99855.52;105375;1258;66458;-45
2023/06/13 10:28:44;;;;;;;2.40;1.20;;;;;;;17.91;100.00;99854.21;105617;1256;72668;-45
2023/06/13 10:31:32;;;;;;;2.90;1.40;;;;;;;17.94;100.00;99852.32;105521;1257;60408;-46
2023/06/13 10:34:28;;;;;;;3.00;0.90;;;;;;;17.96;100.00;99858.15;105346;1257;60543;-45
2023/06/13 10:37:11;;;;;;;2.70;0.90;;;;;;;17.95;100.00;99860.94;105337;1256;74249;-46
2023/06/13 10:39:45;;;;;;;1.50;1.40;;;;;;;17.97;100.00;99859.67;105713;1257;67719;-46
2023/06/13 10:42:21;;;;;;;1.40;1.10;;;;;;;18.01;100.00;99860.52;108028;1260;72884;-46
2023/06/13 10:44:53;;;;;;;3.30;2.40;;;;;;;18.02;100.00;99856.27;105484;1258;60400;-46
2023/06/13 10:47:22;;;;;;;5.90;1.60;;;;;;;18.00;100.00;99858.58;107109;1257;60589;-45
2023/06/13 10:49:51;;;;;;;3.80;0.80;;;;;;;17.97;100.00;99858.06;105139;1261;73835;-46
2023/06/13 10:52:20;;;;;;;2.50;0.90;;;;;;;17.99;100.00;99853.20;105117;1257;67275;-46
2023/06/13 10:54:54;;;;;;;0.80;0.80;;;;;;;18.02;100.00;99855.20;105151;1257;72712;-45
2023/06/13 10:57:21;;;;;;;2.40;1.00;;;;;;;18.05;100.00;99855.80;108829;1257;60063;-46
2023/06/13 10:59:49;;;;;;;2.00;0.90;;;;;;;18.07;100.00;99856.33;108877;1256;59986;-46
2023/06/13 11:02:17;;;;;;;2.80;1.60;;;;;;;18.06;100.00;99857.01;108820;1256;73807;-46
2023/06/13 11:04:52;;;;;;;3.10;1.30;;;;;;;18.00;100.00;99853.66;108837;1256;67565;-46
2023/06/13 11:10:14;;;;;;;3.00;1.00;;;;;;;18.03;100.00;99831.11;102273;1292;599480;-46
2023/06/13 11:12:42;;;;;;;3.50;1.10;;;;;;;18.03;100.00;99843.23;108062;1267;60159;-47
2023/06/13 11:15:26;;;;;;;3.50;0.80;;;;;;;17.98;100.00;99844.03;108214;1267;60129;-47
2023/06/13 11:18:14;;;;;;;3.80;1.30;;;;;;;17.97;100.00;99839.89;108206;1268;72702;-47
2023/06/13 11:20:55;;;;;;;1.10;1.00;;;;;;;18.00;100.00;99839.54;108078;1267;67544;-47
2023/06/13 11:23:23;;;;;;;1.30;0.90;;;;;;;18.01;100.00;99842.30;108074;1265;230656;-47
2023/06/13 11:25:51;;;;;;;1.20;0.90;;;;;;;18.03;100.00;99836.70;108319;1265;58774;-47
2023/06/13 11:28:18;;;;;;;3.50;1.10;;;;;;;18.07;100.00;99846.55;108206;1264;58894;-47